Time;durP1;ratioP1;P1;durP2;ratioP2;P2;SDS_P1;SDS_P2;PMS_P1;PMS_P2;Temp;Humidity;BMP_temperature;BMP_pressure;BME280_temperature;BME280_humidity;BME280_pressure;Samples;Min_cycle;Max_cycle;Signal;HPM_P1;HPM_P2
2021/12/23 00:02:23;;;;;;;41.83;30.87;;;-2.60;89.20;;;;;;5022189;28;20267;-85
2021/12/23 00:04:49;;;;;;;41.03;28.87;;;-2.50;89.10;;;;;;5064732;28;20264;-85
2021/12/23 00:07:14;;;;;;;36.83;27.37;;;-2.50;88.60;;;;;;5071117;28;20266;-85
2021/12/23 00:10:13;;;;;;;37.50;25.23;;;-2.50;88.20;;;;;;5071936;28;20207;-85
2021/12/23 00:12:38;;;;;;;32.10;25.70;;;-2.50;87.90;;;;;;5072718;28;20249;-85
2021/12/23 00:15:09;;;;;;;35.37;25.00;;;-2.60;87.60;;;;;;5075703;28;20226;-84
2021/12/23 00:25:36;;;;;;;31.57;23.63;;;-2.60;88.90;;;;;;5046625;28;20299;-85
2021/12/23 00:28:03;;;;;;;33.43;24.93;;;-2.50;88.40;;;;;;5033213;28;20227;-85
2021/12/23 00:30:28;;;;;;;34.57;25.23;;;-2.60;88.40;;;;;;5051339;28;20208;-85
2021/12/23 00:32:56;;;;;;;32.80;24.63;;;-2.50;88.00;;;;;;5047379;28;20192;-85
2021/12/23 00:35:23;;;;;;;32.30;25.33;;;-2.50;87.70;;;;;;5038156;28;20191;-85
2021/12/23 00:37:55;;;;;;;36.27;26.73;;;-2.70;86.20;;;;;;5066173;28;20208;-85
2021/12/23 00:40:21;;;;;;;35.40;24.97;;;-3.10;87.90;;;;;;5027578;28;20184;-85
2021/12/23 00:42:46;;;;;;;30.97;23.67;;;-3.30;89.70;;;;;;5033037;28;20806;-85
2021/12/23 00:45:12;;;;;;;37.67;24.90;;;-3.40;90.70;;;;;;5046516;28;20214;-85
2021/12/23 00:47:38;;;;;;;34.80;25.23;;;-3.70;91.40;;;;;;5042030;28;20228;-85
2021/12/23 00:50:04;;;;;;;35.87;24.93;;;-4.00;92.80;;;;;;5051028;28;20220;-85
2021/12/23 00:52:34;;;;;;;38.13;25.53;;;-4.30;93.90;;;;;;5046694;28;20199;-85
2021/12/23 00:55:01;;;;;;;39.53;25.43;;;-4.60;96.70;;;;;;5046712;28;20188;-84
2021/12/23 00:57:29;;;;;;;37.40;26.17;;;-4.40;98.40;;;;;;5043643;28;20260;-85
2021/12/23 00:59:57;;;;;;;38.00;25.67;;;-4.40;97.30;;;;;;5041789;28;20266;-84
2021/12/23 01:02:26;;;;;;;37.50;27.00;;;-4.50;98.00;;;;;;5021645;28;20195;-84
2021/12/23 01:04:52;;;;;;;33.80;23.27;;;-4.50;99.20;;;;;;5044387;28;20192;-85
2021/12/23 01:07:18;;;;;;;35.70;25.50;;;-4.40;99.90;;;;;;5043828;28;20282;-85
2021/12/23 01:09:44;;;;;;;34.17;23.43;;;-4.50;99.90;;;;;;5033766;28;20247;-85
2021/12/23 01:12:12;;;;;;;34.90;24.00;;;-4.50;99.90;;;;;;5027436;28;20195;-85
2021/12/23 01:14:52;;;;;;;35.57;24.63;;;-4.60;99.90;;;;;;5034203;28;20196;-85
2021/12/23 01:19:50;;;;;;;32.60;22.03;;;-4.40;99.90;;;;;;5043134;28;20203;-85
2021/12/23 01:22:16;;;;;;;35.03;23.10;;;-4.10;99.90;;;;;;5042725;28;20192;-85
2021/12/23 01:24:42;;;;;;;33.17;23.10;;;-3.90;99.90;;;;;;5049175;28;20205;-86
2021/12/23 01:27:07;;;;;;;28.40;21.07;;;-3.80;99.90;;;;;;5049444;28;20216;-85
2021/12/23 01:29:33;;;;;;;33.13;22.20;;;-3.60;99.90;;;;;;5034183;28;20471;-86
2021/12/23 01:32:03;;;;;;;32.33;22.37;;;-3.40;99.70;;;;;;5052085;28;20326;-85
2021/12/23 01:34:29;;;;;;;28.93;22.13;;;-3.30;98.70;;;;;;5046715;28;20238;-85
2021/12/23 01:36:54;;;;;;;31.90;21.93;;;-3.20;97.80;;;;;;5049716;28;20213;-85
2021/12/23 01:39:20;;;;;;;30.37;21.90;;;-3.20;97.00;;;;;;5047900;28;20251;-87
2021/12/23 01:41:46;;;;;;;29.57;20.53;;;-3.10;97.40;;;;;;5052430;28;20188;-85
2021/12/23 01:44:11;;;;;;;28.83;20.23;;;-2.90;96.80;;;;;;5052420;28;20235;-85
2021/12/23 01:46:37;;;;;;;29.37;21.03;;;-2.80;96.30;;;;;;5051493;28;20212;-85
2021/12/23 01:49:05;;;;;;;26.10;20.07;;;-2.70;95.30;;;;;;5055186;28;20206;-86
2021/12/23 01:51:30;;;;;;;27.77;21.03;;;-2.60;94.90;;;;;;5041118;28;20208;-85
2021/12/23 01:53:56;;;;;;;29.90;21.07;;;-2.60;94.40;;;;;;5054017;28;20717;-85
2021/12/23 01:56:24;;;;;;;27.97;19.87;;;-2.50;94.10;;;;;;5053813;28;20192;-85
2021/12/23 01:58:50;;;;;;;29.40;20.73;;;-2.60;93.90;;;;;;5052854;28;20215;-85
2021/12/23 02:01:16;;;;;;;30.93;22.33;;;-2.50;93.70;;;;;;5048503;28;20185;-85
2021/12/23 02:03:42;;;;;;;25.77;19.53;;;-2.50;93.40;;;;;;5052204;28;20205;-85
2021/12/23 02:06:08;;;;;;;28.10;19.80;;;-2.40;93.00;;;;;;5039488;28;20687;-85
2021/12/23 02:08:36;;;;;;;28.93;20.07;;;-2.40;92.60;;;;;;5034370;28;20252;-86
2021/12/23 02:11:04;;;;;;;29.07;20.47;;;-2.40;92.40;;;;;;5058666;28;20216;-86
2021/12/23 02:13:30;;;;;;;30.67;22.43;;;-2.50;92.70;;;;;;5057696;28;20208;-85
2021/12/23 02:15:56;;;;;;;30.07;23.43;;;-2.50;92.70;;;;;;5046572;28;20192;-86
2021/12/23 02:18:23;;;;;;;31.03;21.87;;;-2.60;92.50;;;;;;5056913;28;20271;-86
2021/12/23 02:20:49;;;;;;;33.60;22.57;;;-2.80;93.00;;;;;;5063457;28;20212;-87
2021/12/23 02:23:14;;;;;;;28.03;20.60;;;-2.80;94.00;;;;;;5068083;28;20269;-86
2021/12/23 02:25:40;;;;;;;29.80;21.90;;;-2.70;94.60;;;;;;5070815;28;20193;-86
2021/12/23 02:28:09;;;;;;;31.97;22.50;;;-2.70;94.30;;;;;;5071870;28;20244;-84
2021/12/23 02:30:38;;;;;;;28.47;20.97;;;-2.70;94.50;;;;;;5056180;28;20231;-87
2021/12/23 02:33:05;;;;;;;30.13;21.10;;;-2.70;95.10;;;;;;5036347;28;20415;-85
2021/12/23 02:35:31;;;;;;;28.23;22.03;;;-2.60;95.10;;;;;;5037202;28;20211;-84
2021/12/23 02:37:56;;;;;;;29.43;22.00;;;-2.50;94.30;;;;;;5051941;28;20726;-87
2021/12/23 02:40:30;;;;;;;28.03;20.50;;;-2.60;94.40;;;;;;5036802;28;20204;-86
2021/12/23 02:43:06;;;;;;;29.27;21.97;;;-2.60;94.80;;;;;;5058213;28;20295;-88
2021/12/23 02:45:32;;;;;;;29.23;21.57;;;-2.60;94.20;;;;;;5061073;28;20199;-85
2021/12/23 02:47:57;;;;;;;29.93;21.77;;;-2.80;95.20;;;;;;5059615;28;20219;-85
2021/12/23 02:50:23;;;;;;;31.03;22.37;;;-2.90;96.80;;;;;;5041923;28;20220;-85
2021/12/23 02:52:48;;;;;;;31.33;22.80;;;-2.80;96.10;;;;;;5053120;28;20181;-86
2021/12/23 02:55:18;;;;;;;31.87;23.23;;;-2.80;96.50;;;;;;5047257;28;20205;-87
2021/12/23 02:57:43;;;;;;;28.03;22.33;;;-2.80;96.10;;;;;;5070297;28;20239;-86
2021/12/23 03:00:10;;;;;;;29.40;21.33;;;-2.80;96.30;;;;;;5054637;28;20199;-86
2021/12/23 03:02:40;;;;;;;28.43;21.03;;;-2.80;96.60;;;;;;5057067;28;20284;-86
2021/12/23 03:05:07;;;;;;;30.77;22.60;;;-2.70;97.30;;;;;;5058109;28;20212;-86
2021/12/23 03:07:34;;;;;;;29.07;22.63;;;-2.70;97.00;;;;;;5056697;28;20528;-86
2021/12/23 03:10:00;;;;;;;33.03;24.47;;;-2.70;96.80;;;;;;5057990;28;20212;-85
2021/12/23 03:12:26;;;;;;;37.13;25.43;;;-2.90;96.70;;;;;;5059814;28;20200;-85
2021/12/23 03:14:51;;;;;;;27.70;21.10;;;-3.10;98.40;;;;;;5052366;28;20211;-86
2021/12/23 03:17:17;;;;;;;30.93;22.30;;;-3.00;99.30;;;;;;5060072;28;20244;-85
2021/12/23 03:19:42;;;;;;;28.67;22.57;;;-3.00;99.10;;;;;;5057256;28;20197;-86
2021/12/23 03:22:08;;;;;;;26.47;20.43;;;-2.80;98.80;;;;;;5062172;28;20204;-85
2021/12/23 03:24:34;;;;;;;27.20;21.30;;;-2.90;99.20;;;;;;5053789;28;20219;-85
2021/12/23 03:27:00;;;;;;;27.40;21.80;;;-2.70;99.20;;;;;;5054230;28;20216;-87
2021/12/23 03:29:26;;;;;;;29.00;20.30;;;-2.90;98.80;;;;;;5035874;28;20224;-86
2021/12/23 03:31:52;;;;;;;28.43;20.20;;;-2.70;98.40;;;;;;5057878;28;20185;-85
2021/12/23 03:34:17;;;;;;;27.67;20.63;;;-2.70;97.90;;;;;;5057592;28;20229;-85
2021/12/23 03:36:43;;;;;;;26.17;20.17;;;-2.60;98.00;;;;;;5056649;28;20204;-86
2021/12/23 03:39:09;;;;;;;27.83;20.47;;;-2.60;98.00;;;;;;5059131;28;20234;-85
2021/12/23 03:41:35;;;;;;;25.93;19.27;;;-2.50;98.50;;;;;;5059535;28;20231;-85
2021/12/23 03:44:01;;;;;;;26.30;19.43;;;-2.40;97.50;;;;;;5057735;28;20201;-85
2021/12/23 03:46:26;;;;;;;26.93;19.23;;;-2.40;97.30;;;;;;5061041;28;20228;-86
2021/12/23 03:48:52;;;;;;;26.40;20.83;;;-2.40;97.20;;;;;;5056435;28;20201;-85
2021/12/23 03:51:19;;;;;;;26.20;19.20;;;-2.40;96.60;;;;;;5057550;28;20225;-85
2021/12/23 03:53:44;;;;;;;28.70;20.80;;;-2.40;96.10;;;;;;5058776;28;20283;-85
2021/12/23 03:56:10;;;;;;;28.57;20.80;;;-2.30;96.00;;;;;;5055155;28;20200;-87
2021/12/23 03:58:36;;;;;;;25.63;19.50;;;-2.50;96.30;;;;;;5054641;28;20211;-86
2021/12/23 04:01:04;;;;;;;32.47;21.20;;;-2.40;96.50;;;;;;5052797;28;20196;-86
2021/12/23 04:03:30;;;;;;;37.47;21.57;;;-2.60;96.20;;;;;;5052099;28;20193;-85
2021/12/23 04:05:56;;;;;;;28.23;20.80;;;-3.00;97.30;;;;;;5054783;28;20227;-86
2021/12/23 04:08:21;;;;;;;28.63;20.83;;;-3.10;99.90;;;;;;5059930;28;20309;-85
2021/12/23 04:10:47;;;;;;;27.53;20.47;;;-3.00;99.50;;;;;;5055885;28;20242;-85
2021/12/23 04:13:13;;;;;;;29.80;20.43;;;-2.90;99.30;;;;;;5052615;28;20276;-86
2021/12/23 04:15:38;;;;;;;25.80;20.27;;;-2.80;98.60;;;;;;5059605;28;20790;-86
2021/12/23 04:18:04;;;;;;;26.63;20.10;;;-2.60;97.60;;;;;;5058029;28;20277;-85
2021/12/23 04:20:34;;;;;;;26.43;20.10;;;-2.50;97.00;;;;;;5055086;28;20224;-86
2021/12/23 04:23:03;;;;;;;29.10;20.00;;;-2.50;96.20;;;;;;5038531;28;20580;-86
2021/12/23 04:25:29;;;;;;;24.83;19.57;;;-2.50;95.50;;;;;;5058716;28;20675;-86
2021/12/23 04:27:58;;;;;;;26.20;19.93;;;-2.50;96.00;;;;;;5055365;28;20558;-86
2021/12/23 04:30:24;;;;;;;25.83;19.63;;;-2.50;95.40;;;;;;5053537;28;20259;-86
2021/12/23 04:32:51;;;;;;;24.43;18.73;;;-2.50;95.20;;;;;;5069901;28;20215;-87
2021/12/23 04:35:16;;;;;;;25.90;19.97;;;-2.50;94.60;;;;;;5065211;28;20183;-86
2021/12/23 04:37:42;;;;;;;25.73;19.70;;;-2.40;94.40;;;;;;5062350;28;20212;-86
2021/12/23 04:40:10;;;;;;;27.77;19.87;;;-2.40;94.00;;;;;;5070128;28;20265;-86
2021/12/23 04:42:36;;;;;;;27.00;20.23;;;-2.40;93.90;;;;;;5043720;28;20697;-86
2021/12/23 04:45:04;;;;;;;27.40;20.40;;;-2.50;93.90;;;;;;5054267;28;20194;-86
2021/12/23 04:47:30;;;;;;;27.27;21.10;;;-2.40;94.70;;;;;;5057239;28;20213;-87
2021/12/23 04:49:55;;;;;;;27.40;21.30;;;-2.40;94.30;;;;;;5054809;28;20306;-86
2021/12/23 04:52:21;;;;;;;28.57;20.20;;;-2.50;94.50;;;;;;5054934;28;20193;-86
2021/12/23 04:54:47;;;;;;;26.03;19.30;;;-2.50;94.60;;;;;;5053040;28;20195;-85
2021/12/23 04:57:12;;;;;;;27.40;19.13;;;-2.60;94.30;;;;;;5052191;28;20710;-85
2021/12/23 04:59:38;;;;;;;28.20;20.40;;;-2.60;95.10;;;;;;5047813;28;20200;-85
2021/12/23 05:02:04;;;;;;;25.90;19.70;;;-2.80;95.10;;;;;;5052955;28;20287;-85
2021/12/23 05:04:30;;;;;;;28.73;21.70;;;-2.80;95.90;;;;;;5032673;28;20197;-84
2021/12/23 05:06:55;;;;;;;30.33;22.03;;;-2.90;96.30;;;;;;5070263;28;20230;-85
2021/12/23 05:09:21;;;;;;;28.53;20.13;;;-3.30;97.70;;;;;;5052905;28;20200;-84
2021/12/23 05:11:47;;;;;;;31.87;21.60;;;-3.40;99.90;;;;;;5049897;28;20195;-84
2021/12/23 05:14:12;;;;;;;32.70;21.73;;;-3.40;99.90;;;;;;5049529;28;20207;-86
2021/12/23 05:16:38;;;;;;;28.53;21.20;;;-3.40;99.50;;;;;;5051402;28;20396;-85
2021/12/23 05:19:04;;;;;;;31.80;23.97;;;-3.40;99.90;;;;;;5035675;28;20196;-85
2021/12/23 05:21:30;;;;;;;29.33;21.70;;;-3.10;99.70;;;;;;5050755;28;20270;-85
2021/12/23 05:23:56;;;;;;;26.23;20.90;;;-3.00;98.20;;;;;;5049641;28;20270;-85
2021/12/23 05:26:22;;;;;;;45.03;30.83;;;-3.00;97.80;;;;;;5047658;28;20275;-86
2021/12/23 05:28:48;;;;;;;64.23;41.80;;;-2.90;98.10;;;;;;5050814;28;20198;-84
2021/12/23 05:31:13;;;;;;;75.17;49.07;;;-2.80;97.60;;;;;;5033224;28;20579;-84
2021/12/23 05:33:39;;;;;;;59.37;38.27;;;-2.80;96.80;;;;;;5034240;28;20254;-86
2021/12/23 05:36:05;;;;;;;33.17;22.93;;;-2.70;96.40;;;;;;5051745;28;20291;-85
2021/12/23 05:38:31;;;;;;;36.13;24.27;;;-2.70;95.20;;;;;;5048222;28;20261;-85
2021/12/23 05:40:57;;;;;;;25.60;19.10;;;-2.60;95.40;;;;;;5051937;28;20196;-85
2021/12/23 05:43:23;;;;;;;25.43;19.77;;;-2.70;94.60;;;;;;5045763;28;20195;-86
2021/12/23 05:45:48;;;;;;;28.13;22.17;;;-2.60;94.10;;;;;;5048837;28;20192;-85
2021/12/23 05:48:14;;;;;;;28.23;21.53;;;-2.60;94.20;;;;;;5052770;28;20306;-85
2021/12/23 05:50:40;;;;;;;26.67;21.13;;;-3.00;93.90;;;;;;5029693;28;20355;-85
2021/12/23 05:53:06;;;;;;;30.20;21.57;;;-3.40;97.10;;;;;;5048553;28;20235;-85
2021/12/23 05:55:32;;;;;;;30.37;21.40;;;-3.20;98.50;;;;;;5053022;28;20199;-85
2021/12/23 05:57:57;;;;;;;27.67;21.33;;;-3.20;97.00;;;;;;5053144;28;20239;-85
2021/12/23 06:00:32;;;;;;;30.43;22.80;;;-3.20;97.10;;;;;;5046705;28;20873;-85
2021/12/23 06:02:59;;;;;;;34.10;25.43;;;-3.20;97.10;;;;;;5046397;28;20669;-85
2021/12/23 06:05:25;;;;;;;29.93;22.50;;;-3.10;97.40;;;;;;5045603;28;20591;-85
2021/12/23 06:07:51;;;;;;;25.20;19.63;;;-3.10;97.20;;;;;;5050294;28;20273;-86
2021/12/23 06:10:18;;;;;;;29.87;22.37;;;-3.00;97.30;;;;;;5034509;28;20302;-86
2021/12/23 06:12:44;;;;;;;27.70;21.00;;;-2.80;96.70;;;;;;5046834;28;20234;-86
2021/12/23 06:15:11;;;;;;;26.33;19.97;;;-2.70;95.60;;;;;;5045636;28;20199;-85
2021/12/23 06:17:37;;;;;;;28.67;20.90;;;-2.60;94.90;;;;;;5053307;28;20204;-85
2021/12/23 06:20:08;;;;;;;25.33;20.93;;;-2.60;95.00;;;;;;5053601;28;20210;-85
2021/12/23 06:22:35;;;;;;;28.40;21.67;;;-2.50;94.80;;;;;;5047273;28;20378;-85
2021/12/23 06:25:04;;;;;;;27.13;19.60;;;-2.40;94.00;;;;;;5059128;28;20621;-86
2021/12/23 06:27:29;;;;;;;27.53;21.40;;;-2.20;93.40;;;;;;5069177;28;20223;-86
2021/12/23 06:29:55;;;;;;;26.87;21.40;;;-2.30;93.00;;;;;;5054832;28;20220;-85
2021/12/23 06:32:21;;;;;;;28.50;21.73;;;-2.30;92.30;;;;;;5046942;28;20205;-85
2021/12/23 06:34:47;;;;;;;28.40;22.17;;;-2.40;91.80;;;;;;5058252;28;20203;-85
2021/12/23 06:37:12;;;;;;;27.87;21.13;;;-2.40;92.70;;;;;;5054230;28;20280;-85
2021/12/23 06:39:39;;;;;;;24.60;18.23;;;-2.50;92.00;;;;;;5046711;28;20670;-85
2021/12/23 06:42:06;;;;;;;26.23;20.23;;;-2.50;93.30;;;;;;5025915;28;20193;-85
2021/12/23 06:44:32;;;;;;;26.50;18.97;;;-2.50;93.60;;;;;;5052820;28;20282;-85
2021/12/23 06:46:57;;;;;;;27.93;20.93;;;-2.50;93.50;;;;;;5029988;28;20235;-85
2021/12/23 06:49:23;;;;;;;27.37;20.63;;;-2.50;92.30;;;;;;5051034;28;20192;-85
2021/12/23 06:51:49;;;;;;;25.60;20.27;;;-2.40;93.10;;;;;;5033185;28;20271;-85
2021/12/23 06:54:16;;;;;;;27.13;21.53;;;-2.40;92.60;;;;;;5028709;28;20216;-85
2021/12/23 06:56:42;;;;;;;30.00;20.53;;;-2.50;91.30;;;;;;5060275;28;20196;-87
2021/12/23 06:59:08;;;;;;;27.33;20.43;;;-2.60;92.00;;;;;;5077487;28;20199;-86
2021/12/23 07:01:34;;;;;;;26.73;20.13;;;-2.70;92.30;;;;;;5073490;28;20485;-86
2021/12/23 07:06:31;;;;;;;24.47;19.03;;;-2.70;93.00;;;;;;5049642;28;20232;-86
2021/12/23 07:08:56;;;;;;;24.17;18.77;;;-2.70;92.10;;;;;;5061061;28;20176;-86
2021/12/23 07:11:22;;;;;;;28.63;19.83;;;-2.80;92.50;;;;;;5062569;28;20250;-86
2021/12/23 07:13:49;;;;;;;21.80;17.93;;;-2.70;92.30;;;;;;5044342;28;20180;-85
2021/12/23 07:16:14;;;;;;;24.40;17.33;;;-2.70;91.90;;;;;;5060223;28;20246;-86
2021/12/23 07:18:40;;;;;;;27.43;18.97;;;-2.70;92.10;;;;;;5065528;28;20555;-86
2021/12/23 07:21:06;;;;;;;25.67;18.20;;;-2.80;91.70;;;;;;5065641;28;20247;-85
2021/12/23 07:23:32;;;;;;;22.00;17.77;;;-2.80;91.30;;;;;;5081053;28;20195;-85
2021/12/23 07:25:58;;;;;;;27.27;20.50;;;-2.90;91.80;;;;;;5078793;28;20216;-85
2021/12/23 07:28:23;;;;;;;28.40;19.60;;;-3.00;92.30;;;;;;5065409;28;20223;-85
2021/12/23 07:30:49;;;;;;;25.97;19.50;;;-3.00;93.10;;;;;;5065976;28;20206;-85
2021/12/23 07:33:15;;;;;;;26.17;20.93;;;-2.90;93.20;;;;;;5066780;28;20267;-85
2021/12/23 07:35:41;;;;;;;27.53;20.23;;;-3.00;93.80;;;;;;5068047;28;20176;-85
2021/12/23 07:38:07;;;;;;;24.57;19.47;;;-2.80;93.80;;;;;;5066440;28;20582;-85
2021/12/23 07:40:33;;;;;;;27.33;20.50;;;-2.80;93.20;;;;;;5049646;28;20196;-85
2021/12/23 07:45:44;;;;;;;31.23;21.97;;;-2.90;95.00;;;;;;5046693;28;20244;-85
2021/12/23 07:48:10;;;;;;;28.77;19.37;;;-2.70;94.30;;;;;;5035605;28;20223;-84
2021/12/23 07:50:37;;;;;;;25.80;18.90;;;-2.60;94.10;;;;;;5037594;28;20263;-88
2021/12/23 07:53:02;;;;;;;31.27;21.10;;;-2.50;93.40;;;;;;5017329;28;20185;-85
2021/12/23 07:55:28;;;;;;;28.23;19.37;;;-2.50;92.80;;;;;;5043367;28;20187;-85
2021/12/23 07:57:54;;;;;;;27.37;19.40;;;-2.50;92.90;;;;;;5049125;28;20270;-85
2021/12/23 08:00:20;;;;;;;24.70;18.50;;;-2.40;92.70;;;;;;5029309;28;20200;-85
2021/12/23 08:02:46;;;;;;;28.47;18.17;;;-2.20;92.50;;;;;;5041900;28;20184;-85
2021/12/23 08:05:12;;;;;;;45.60;22.03;;;-2.20;92.10;;;;;;5059313;28;20571;-85
2021/12/23 08:07:38;;;;;;;30.90;20.33;;;-2.20;92.50;;;;;;5065133;28;20227;-85
2021/12/23 08:10:05;;;;;;;26.07;18.70;;;-2.20;92.50;;;;;;5048070;28;20216;-85
2021/12/23 08:12:30;;;;;;;27.57;18.33;;;-2.10;92.30;;;;;;5030450;28;20192;-85
2021/12/23 08:14:56;;;;;;;27.93;19.03;;;-2.10;92.30;;;;;;5065198;28;20191;-85
2021/12/23 08:17:22;;;;;;;25.87;18.53;;;-2.10;91.90;;;;;;5072170;28;20220;-85
2021/12/23 08:19:48;;;;;;;27.27;20.63;;;-2.20;92.30;;;;;;5063518;28;20197;-84
2021/12/23 08:22:13;;;;;;;21.93;17.17;;;-2.40;93.30;;;;;;5048021;28;20192;-85
2021/12/23 08:24:39;;;;;;;22.67;16.57;;;-2.70;96.30;;;;;;5042750;28;20312;-85
2021/12/23 08:27:07;;;;;;;21.20;16.63;;;-2.60;96.70;;;;;;5039766;28;20228;-86
2021/12/23 08:29:32;;;;;;;27.20;19.07;;;-2.60;96.90;;;;;;5057754;28;20218;-86
2021/12/23 08:31:58;;;;;;;21.73;16.43;;;-2.70;97.90;;;;;;5041421;28;20197;-86
2021/12/23 08:34:25;;;;;;;23.87;17.63;;;-2.60;98.60;;;;;;5058486;28;20248;-85
2021/12/23 08:36:52;;;;;;;23.93;16.97;;;-2.80;99.30;;;;;;5057061;28;20207;-85
2021/12/23 08:39:20;;;;;;;23.37;17.37;;;-3.00;99.90;;;;;;5058775;28;20184;-85
2021/12/23 08:41:47;;;;;;;22.50;16.63;;;-3.10;99.90;;;;;;5058506;28;20195;-85
2021/12/23 08:44:13;;;;;;;26.80;18.67;;;-2.90;99.90;;;;;;5040230;28;20197;-86
2021/12/23 08:46:39;;;;;;;22.87;17.07;;;-2.70;99.90;;;;;;5063484;28;20230;-85
2021/12/23 08:49:06;;;;;;;24.43;18.20;;;-2.60;99.90;;;;;;5064315;28;20208;-85
2021/12/23 08:51:36;;;;;;;24.80;17.37;;;-2.70;99.90;;;;;;5056812;28;20211;-85
2021/12/23 08:54:03;;;;;;;23.43;17.50;;;-2.70;99.90;;;;;;5054543;28;20730;-85
2021/12/23 08:56:28;;;;;;;22.47;17.83;;;-2.70;99.90;;;;;;5058880;28;20208;-85
2021/12/23 08:58:55;;;;;;;23.83;17.90;;;-2.70;99.90;;;;;;5036961;28;20247;-85
2021/12/23 09:01:21;;;;;;;25.63;18.30;;;-2.50;99.90;;;;;;5043970;28;20192;-85
2021/12/23 09:03:47;;;;;;;23.20;17.77;;;-2.20;99.90;;;;;;5055058;28;20225;-86
2021/12/23 09:06:13;;;;;;;22.77;16.50;;;-1.90;98.50;;;;;;5057025;28;20265;-86
2021/12/23 09:08:39;;;;;;;25.83;18.50;;;-1.70;97.60;;;;;;5058392;28;20682;-85
2021/12/23 09:11:05;;;;;;;21.27;17.57;;;-1.60;97.10;;;;;;5061585;28;20236;-88
2021/12/23 09:13:31;;;;;;;24.60;17.47;;;-1.60;96.40;;;;;;5069269;28;20195;-86
2021/12/23 09:15:58;;;;;;;23.33;18.47;;;-1.80;98.20;;;;;;5063182;28;20176;-87
2021/12/23 09:18:24;;;;;;;22.07;17.90;;;-1.80;98.10;;;;;;5075757;28;20220;-85
2021/12/23 09:20:51;;;;;;;24.83;17.50;;;-1.80;98.90;;;;;;5050340;28;20221;-86
2021/12/23 09:23:16;;;;;;;25.70;19.73;;;-1.60;97.80;;;;;;5061140;28;20330;-85
2021/12/23 09:25:42;;;;;;;26.27;19.80;;;-1.50;96.80;;;;;;5049747;28;20226;-87
2021/12/23 09:33:34;;;;;;;26.30;18.70;;;-1.40;98.40;;;;;;5046812;28;20333;-83
2021/12/23 09:35:59;;;;;;;29.40;21.87;;;-1.20;97.70;;;;;;5047764;28;20184;-84
2021/12/23 09:38:28;;;;;;;31.30;22.87;;;-1.00;97.60;;;;;;5062550;28;20212;-84
2021/12/23 09:41:01;;;;;;;29.07;21.37;;;-1.60;99.90;;;;;;5066204;28;20204;-85
2021/12/23 09:43:29;;;;;;;35.47;24.00;;;-1.60;99.90;;;;;;5030571;28;20192;-85
2021/12/23 09:45:55;;;;;;;31.30;23.47;;;-1.70;99.90;;;;;;5046784;28;20202;-85
2021/12/23 09:48:22;;;;;;;31.67;23.10;;;-1.60;99.90;;;;;;5063003;28;20220;-85
2021/12/23 09:50:50;;;;;;;34.90;24.83;;;-1.70;99.90;;;;;;5047873;28;20223;-85
2021/12/23 09:53:18;;;;;;;35.20;24.27;;;-1.80;99.90;;;;;;5064385;28;20242;-85
2021/12/23 09:55:45;;;;;;;37.70;25.70;;;-1.60;99.90;;;;;;5064196;28;20261;-85
2021/12/23 09:58:10;;;;;;;38.07;25.60;;;-1.80;99.90;;;;;;5065366;28;20211;-85
2021/12/23 10:00:44;;;;;;;35.90;24.37;;;-1.70;99.90;;;;;;5061212;28;20192;-85
2021/12/23 10:03:09;;;;;;;35.20;24.17;;;-1.60;99.90;;;;;;5067695;28;20204;-86
2021/12/23 10:05:36;;;;;;;37.47;24.53;;;-1.80;99.90;;;;;;5062320;28;20187;-86
2021/12/23 10:08:05;;;;;;;35.53;24.30;;;-1.80;99.90;;;;;;5066793;28;20216;-85
2021/12/23 10:10:39;;;;;;;37.17;24.97;;;-1.90;99.90;;;;;;5045431;28;20203;-85
2021/12/23 10:26:49;;;;;;;39.53;25.20;;;-1.50;99.90;;;;;;5056954;28;20196;-85
2021/12/23 10:33:13;;;;;;;33.83;25.60;;;-1.50;99.90;;;;;;5066146;28;20271;-84
2021/12/23 10:38:42;;;;;;;37.37;25.60;;;-1.50;99.90;;;;;;5066145;28;20277;-85
2021/12/23 10:41:18;;;;;;;36.60;26.63;;;-1.50;99.90;;;;;;5062340;28;20269;-84
2021/12/23 10:43:51;;;;;;;35.47;24.47;;;-1.40;99.90;;;;;;5060613;28;20180;-84
2021/12/23 10:46:36;;;;;;;39.30;27.10;;;-1.20;99.90;;;;;;5052883;28;20191;-85
2021/12/23 10:52:19;;;;;;;37.27;28.17;;;-1.30;99.90;;;;;;5061708;28;20241;-84
2021/12/23 11:00:21;;;;;;;37.87;27.00;;;-1.20;99.90;;;;;;5063593;28;20245;-84
2021/12/23 11:03:24;;;;;;;41.23;27.70;;;-1.10;99.90;;;;;;5043791;28;20248;-85
2021/12/23 11:06:13;;;;;;;42.80;30.00;;;-1.10;99.90;;;;;;5059801;28;20732;-85
2021/12/23 11:11:57;;;;;;;38.40;28.57;;;-1.20;99.90;;;;;;5062827;28;20815;-84
2021/12/23 11:32:13;;;;;;;40.90;28.83;;;-0.80;99.90;;;;;;5078109;28;20301;-85
2021/12/23 11:37:11;;;;;;;49.60;32.60;;;-0.70;99.90;;;;;;5056550;28;20235;-87
2021/12/23 11:42:38;;;;;;;42.00;29.63;;;-0.70;99.90;;;;;;5055183;28;20223;-85
2021/12/23 11:45:04;;;;;;;46.17;31.73;;;-0.60;99.90;;;;;;5070185;28;20191;-86
2021/12/23 11:47:31;;;;;;;45.83;31.73;;;-0.60;99.90;;;;;;5073174;28;20786;-87
2021/12/23 11:49:57;;;;;;;42.03;30.73;;;-0.50;99.90;;;;;;5050588;28;20229;-86
2021/12/23 11:52:23;;;;;;;43.87;28.93;;;-0.40;99.90;;;;;;5068641;28;20208;-87
2021/12/23 11:54:50;;;;;;;39.63;28.83;;;0.00;99.90;;;;;;5036645;28;20207;-87
2021/12/23 11:57:35;;;;;;;40.07;28.33;;;0.30;99.90;;;;;;5071749;28;20212;-86
2021/12/23 12:00:17;;;;;;;41.83;28.97;;;0.10;99.90;;;;;;5070997;28;20192;-87
2021/12/23 12:02:43;;;;;;;41.70;27.27;;;0.10;99.90;;;;;;5052610;28;20183;-87
2021/12/23 12:05:18;;;;;;;40.00;27.07;;;0.20;99.90;;;;;;5050963;28;20212;-85
2021/12/23 12:07:45;;;;;;;44.87;30.03;;;0.30;99.90;;;;;;5047275;28;20284;-86
2021/12/23 12:10:19;;;;;;;40.07;28.23;;;0.50;99.90;;;;;;5068962;28;20261;-84
2021/12/23 12:12:59;;;;;;;37.10;27.03;;;0.60;99.90;;;;;;5068727;28;20194;-86
2021/12/23 12:15:41;;;;;;;39.23;26.00;;;0.90;99.90;;;;;;5066270;28;20185;-86
2021/12/23 12:18:18;;;;;;;35.63;27.03;;;0.90;99.90;;;;;;5068833;28;20287;-89
2021/12/23 12:20:48;;;;;;;43.67;28.03;;;0.70;99.90;;;;;;5048673;28;20196;-83
2021/12/23 12:23:22;;;;;;;41.03;27.17;;;0.60;99.90;;;;;;5070652;28;20184;-85
2021/12/23 12:25:53;;;;;;;40.13;28.23;;;0.50;99.90;;;;;;5071412;28;20196;-88
2021/12/23 12:28:38;;;;;;;38.63;26.53;;;0.60;99.90;;;;;;5072925;28;20210;-87
2021/12/23 12:31:16;;;;;;;34.37;24.23;;;0.90;99.90;;;;;;5070211;28;20215;-86
2021/12/23 12:33:55;;;;;;;35.63;24.73;;;1.00;99.90;;;;;;5068655;28;20231;-86
2021/12/23 12:36:23;;;;;;;37.93;26.47;;;1.20;99.90;;;;;;5063067;28;20180;-88
2021/12/23 12:38:51;;;;;;;38.40;25.77;;;1.00;99.90;;;;;;5065364;28;20229;-86
2021/12/23 12:41:18;;;;;;;42.20;26.50;;;0.80;99.90;;;;;;5069196;28;20172;-86
2021/12/23 12:43:52;;;;;;;37.27;26.37;;;0.90;99.90;;;;;;5065717;28;20203;-86
2021/12/23 12:46:52;;;;;;;37.37;27.33;;;0.90;99.90;;;;;;5048621;28;20198;-85
2021/12/23 12:49:25;;;;;;;38.50;25.23;;;0.80;99.90;;;;;;5060721;28;20207;-83
2021/12/23 12:51:54;;;;;;;37.80;24.43;;;1.10;99.90;;;;;;5054128;28;20266;-83
2021/12/23 12:54:30;;;;;;;126.70;34.47;;;1.40;99.90;;;;;;5037957;28;20274;-83
2021/12/23 12:57:00;;;;;;;36.17;24.83;;;1.40;99.90;;;;;;5060130;28;20245;-83
2021/12/23 12:59:29;;;;;;;39.30;24.57;;;1.30;99.90;;;;;;5034914;28;20196;-82
2021/12/23 13:01:58;;;;;;;33.43;24.07;;;1.20;99.90;;;;;;5061361;28;20548;-83
2021/12/23 13:04:23;;;;;;;34.43;25.30;;;1.30;99.90;;;;;;5059605;28;20266;-84
2021/12/23 13:06:50;;;;;;;34.90;25.03;;;1.40;99.90;;;;;;5061600;28;20208;-85
2021/12/23 13:09:22;;;;;;;34.43;24.57;;;1.40;99.90;;;;;;5045739;28;20218;-81
2021/12/23 13:11:49;;;;;;;31.67;23.77;;;1.40;99.90;;;;;;5061268;28;20216;-84
2021/12/23 13:14:21;;;;;;;34.73;24.73;;;1.40;99.90;;;;;;5043515;28;20190;-83
2021/12/23 13:16:56;;;;;;;33.33;24.27;;;1.40;99.90;;;;;;5054706;28;20585;-84
2021/12/23 13:19:31;;;;;;;34.50;25.13;;;1.30;99.90;;;;;;5057547;28;20192;-83
2021/12/23 13:21:59;;;;;;;35.13;24.57;;;1.30;99.90;;;;;;5053605;28;20206;-82
2021/12/23 13:24:28;;;;;;;32.67;24.70;;;1.40;99.90;;;;;;5038748;28;20216;-84
2021/12/23 13:26:56;;;;;;;33.60;24.87;;;1.40;99.90;;;;;;5054277;28;20417;-85
2021/12/23 13:29:27;;;;;;;37.80;25.67;;;1.40;99.90;;;;;;5040668;28;20738;-85
2021/12/23 13:31:54;;;;;;;38.90;29.43;;;1.40;99.90;;;;;;5054383;28;20219;-83
2021/12/23 13:34:24;;;;;;;42.90;26.93;;;1.50;99.90;;;;;;5037199;28;20696;-82
2021/12/23 13:36:53;;;;;;;42.63;26.93;;;1.50;99.90;;;;;;5044814;28;20212;-83
2021/12/23 13:39:27;;;;;;;36.83;27.20;;;1.70;99.90;;;;;;5070512;28;20799;-82
2021/12/23 13:42:05;;;;;;;40.87;27.60;;;1.70;99.90;;;;;;5074643;28;20212;-84
2021/12/23 13:44:43;;;;;;;37.70;27.47;;;1.60;99.90;;;;;;5080652;28;20179;-83
2021/12/23 13:47:18;;;;;;;35.40;26.43;;;1.60;99.90;;;;;;5044884;28;20246;-87
2021/12/23 13:49:56;;;;;;;41.43;26.57;;;1.60;99.90;;;;;;5066514;28;20649;-86